Bierset, Belgique

16:32 CEST le 25 octobre 2014 (GMT +0200)
Embourg | Change Station
CLOSE
Current Station
Stations météorologiques personnelles
Location: Chaudfontaine, RGION WALLONNE
Altitude: 577 ft
Stations météo à proximité

Alt. 577 ft 50.59 °N, 5.62 °E | Updated 36 seconds ago

Heavy Drizzle
Bruine insistante
55.4 ° F
Paraît 55.4 ° F
N
2.2
Vent Variable Vent de SO
Gusts 3.2 mph

Aujourd'hui
Haut(e) -- | Bas -- ° F
--% Risque de précip.
Hier
Haut(e) -- | Bas -- ° F
Precip. -- pouce
8:17 AM 6:26 PM
Lune montante, 3% visible
Pression 30.12 pouce
Visibilité 0.9 Miles terrestres
Nuages Nuageux 200 ft
Nuageux 300 ft
Couvert 500 ft
Point de rosée 55 ° F
Humidité 99%
Précipitations -999.00 pouce
Profondeur de la couche neigeuse Non disponible.
UV 0 sur 12
Pollen Non disponible.
Qualité de l'air Non disponible.
Flu Activity Non disponible.
METAR EHBK 251425Z AUTO 22007KT 200V260 1400 R21/1600 +DZ BKN002 BKN003 OVC005 13/13 Q1020 BECMG 4500 BR BKN006

More Conditions Fewer Conditions

Pression 30.12 pouce
Visibilité 0.9 Miles terrestres
Nuages Nuageux 200 ft
Nuageux 300 ft
Couvert 500 ft
Point de rosée 55 ° F
Humidité 99%
Précipitations -999.00 pouce
Profondeur de la couche neigeuse Non disponible.
UV 0 sur 12
Pollen Non disponible.
Qualité de l'air Non disponible.
Flu Activity Non disponible.
METAR EHBK 251425Z AUTO 22007KT 200V260 1400 R21/1600 +DZ BKN002 BKN003 OVC005 13/13 Q1020 BECMG 4500 BR BKN006

More Conditions Fewer Conditions

10-Day Weather Forecast

Almanac

Astronomie

Oct. 25, 2014 Lever Coucher
Temps réel 08:17 CEST 18:26 CEST
Crépuscule civil 07:43 CEST 19:00 CEST
Crépuscule nautique 07:05 CEST 19:38 CEST
Crépuscule astronomique 06:27 CEST 20:16 CEST
Lune 09:47 CEST 19:29 CEST
Durée de lumière visible 11h 16m
Longueur du jour
10h 09m
Tomorrow will be 3m 36s shorter.
Lune montante, 3% of the Moon is Illuminated
Aujourd'hui
Lune montante
Oct 30
Premier quartier
Nov 6
Pleine lune
Nov 14
Dernier quartier
Nov 22
Nouveau

Extrêmes aujourd'hui

Country Highs Country Lows

Community

WunderPhotos

Upload Photos

1,764,852 Photos téléchargées !

Nearby

Qualité de l'air

Not available.

Épaisseur de neige

Not available.

Activité sismique

Ville Distance Mag. Time & Date
No recent earthquake activity has been reported nearby.
Minimum magnitude displayed is 2.5.

Températures des eaux côtières

Lieu Température
Aucun rapport de station

Stations météo à proximité